sensor_id;sensor_type;location;lat;lon;timestamp;P1;durP1;ratioP1;P2;durP2;ratioP2
56329;SDS011;42236;48.058;10.632;2023-02-10T00:00:15;14.47;;;7.57;;
56329;SDS011;42236;48.058;10.632;2023-02-10T00:03:01;20.83;;;10.00;;
56329;SDS011;42236;48.058;10.632;2023-02-10T00:05:46;16.37;;;8.50;;
56329;SDS011;42236;48.058;10.632;2023-02-10T00:08:33;14.30;;;7.57;;
56329;SDS011;42236;48.058;10.632;2023-02-10T00:11:19;19.67;;;9.47;;
56329;SDS011;42236;48.058;10.632;2023-02-10T00:14:04;15.03;;;7.87;;
56329;SDS011;42236;48.058;10.632;2023-02-10T00:16:51;16.93;;;8.67;;
56329;SDS011;42236;48.058;10.632;2023-02-10T00:19:37;14.00;;;8.07;;
56329;SDS011;42236;48.058;10.632;2023-02-10T00:22:23;17.47;;;8.93;;
56329;SDS011;42236;48.058;10.632;2023-02-10T00:25:09;16.73;;;9.17;;
56329;SDS011;42236;48.058;10.632;2023-02-10T00:27:54;15.00;;;8.57;;
56329;SDS011;42236;48.058;10.632;2023-02-10T00:30:40;18.90;;;9.83;;
56329;SDS011;42236;48.058;10.632;2023-02-10T00:33:26;15.03;;;9.30;;
56329;SDS011;42236;48.058;10.632;2023-02-10T00:36:12;15.50;;;8.40;;
56329;SDS011;42236;48.058;10.632;2023-02-10T00:38:59;15.33;;;8.77;;
56329;SDS011;42236;48.058;10.632;2023-02-10T00:41:45;18.60;;;9.73;;
56329;SDS011;42236;48.058;10.632;2023-02-10T00:44:30;16.03;;;9.23;;
56329;SDS011;42236;48.058;10.632;2023-02-10T00:47:16;17.73;;;9.20;;
56329;SDS011;42236;48.058;10.632;2023-02-10T00:50:02;18.17;;;8.37;;
56329;SDS011;42236;48.058;10.632;2023-02-10T00:52:48;19.40;;;8.90;;
56329;SDS011;42236;48.058;10.632;2023-02-10T00:55:33;19.67;;;9.50;;
56329;SDS011;42236;48.058;10.632;2023-02-10T00:58:19;17.67;;;9.30;;
56329;SDS011;42236;48.058;10.632;2023-02-10T01:01:06;18.20;;;8.93;;
56329;SDS011;42236;48.058;10.632;2023-02-10T01:03:52;15.40;;;8.73;;
56329;SDS011;42236;48.058;10.632;2023-02-10T01:06:37;16.50;;;8.93;;
56329;SDS011;42236;48.058;10.632;2023-02-10T01:09:23;19.27;;;9.63;;
56329;SDS011;42236;48.058;10.632;2023-02-10T01:12:09;17.17;;;9.67;;
56329;SDS011;42236;48.058;10.632;2023-02-10T01:14:55;13.43;;;7.43;;
56329;SDS011;42236;48.058;10.632;2023-02-10T01:17:40;14.53;;;8.60;;
56329;SDS011;42236;48.058;10.632;2023-02-10T01:20:26;18.57;;;8.97;;
56329;SDS011;42236;48.058;10.632;2023-02-10T01:23:12;17.73;;;8.90;;
56329;SDS011;42236;48.058;10.632;2023-02-10T01:26:01;13.87;;;8.03;;
56329;SDS011;42236;48.058;10.632;2023-02-10T01:28:47;16.97;;;9.07;;
56329;SDS011;42236;48.058;10.632;2023-02-10T01:31:33;14.00;;;8.50;;
56329;SDS011;42236;48.058;10.632;2023-02-10T01:34:18;17.10;;;8.63;;
56329;SDS011;42236;48.058;10.632;2023-02-10T01:37:04;14.00;;;8.83;;
56329;SDS011;42236;48.058;10.632;2023-02-10T01:39:50;17.07;;;8.37;;
56329;SDS011;42236;48.058;10.632;2023-02-10T01:42:35;14.63;;;7.10;;
56329;SDS011;42236;48.058;10.632;2023-02-10T01:45:25;12.97;;;6.93;;
56329;SDS011;42236;48.058;10.632;2023-02-10T01:48:13;14.37;;;7.30;;
56329;SDS011;42236;48.058;10.632;2023-02-10T01:51:03;11.10;;;6.90;;
56329;SDS011;42236;48.058;10.632;2023-02-10T01:53:51;12.53;;;7.17;;
56329;SDS011;42236;48.058;10.632;2023-02-10T01:56:38;13.73;;;6.57;;
56329;SDS011;42236;48.058;10.632;2023-02-10T01:59:25;11.70;;;7.07;;
56329;SDS011;42236;48.058;10.632;2023-02-10T02:02:15;13.63;;;7.37;;
56329;SDS011;42236;48.058;10.632;2023-02-10T02:05:04;12.70;;;6.57;;
56329;SDS011;42236;48.058;10.632;2023-02-10T02:07:51;12.50;;;6.63;;
56329;SDS011;42236;48.058;10.632;2023-02-10T02:10:40;11.53;;;5.80;;
56329;SDS011;42236;48.058;10.632;2023-02-10T02:17:00;14.77;;;7.27;;
56329;SDS011;42236;48.058;10.632;2023-02-10T02:26:30;11.27;;;6.10;;
56329;SDS011;42236;48.058;10.632;2023-02-10T02:32:48;14.87;;;7.37;;
56329;SDS011;42236;48.058;10.632;2023-02-10T02:35:43;19.20;;;6.73;;
56329;SDS011;42236;48.058;10.632;2023-02-10T02:38:41;12.50;;;7.00;;
56329;SDS011;42236;48.058;10.632;2023-02-10T02:41:27;12.97;;;6.83;;
56329;SDS011;42236;48.058;10.632;2023-02-10T02:44:13;11.87;;;6.43;;
56329;SDS011;42236;48.058;10.632;2023-02-10T02:47:00;14.70;;;6.77;;
56329;SDS011;42236;48.058;10.632;2023-02-10T02:50:00;15.40;;;6.43;;
56329;SDS011;42236;48.058;10.632;2023-02-10T02:52:58;14.10;;;6.20;;
56329;SDS011;42236;48.058;10.632;2023-02-10T02:58:49;11.53;;;6.37;;
56329;SDS011;42236;48.058;10.632;2023-02-10T03:01:49;9.43;;;5.03;;
56329;SDS011;42236;48.058;10.632;2023-02-10T03:04:40;12.60;;;5.60;;
56329;SDS011;42236;48.058;10.632;2023-02-10T03:07:26;11.90;;;5.60;;
56329;SDS011;42236;48.058;10.632;2023-02-10T03:10:12;10.67;;;5.50;;
56329;SDS011;42236;48.058;10.632;2023-02-10T03:12:58;11.17;;;6.33;;
56329;SDS011;42236;48.058;10.632;2023-02-10T03:15:43;10.03;;;5.40;;
56329;SDS011;42236;48.058;10.632;2023-02-10T03:18:29;12.77;;;5.60;;
56329;SDS011;42236;48.058;10.632;2023-02-10T03:21:15;11.30;;;5.83;;
56329;SDS011;42236;48.058;10.632;2023-02-10T03:24:01;12.17;;;6.37;;
56329;SDS011;42236;48.058;10.632;2023-02-10T03:26:46;10.77;;;5.63;;
56329;SDS011;42236;48.058;10.632;2023-02-10T03:29:32;7.90;;;4.73;;
56329;SDS011;42236;48.058;10.632;2023-02-10T03:32:18;10.27;;;5.67;;
56329;SDS011;42236;48.058;10.632;2023-02-10T03:35:05;10.77;;;5.30;;
56329;SDS011;42236;48.058;10.632;2023-02-10T03:37:51;11.07;;;5.80;;
56329;SDS011;42236;48.058;10.632;2023-02-10T03:40:36;11.83;;;4.70;;
56329;SDS011;42236;48.058;10.632;2023-02-10T03:43:22;9.67;;;5.50;;
56329;SDS011;42236;48.058;10.632;2023-02-10T03:46:08;10.97;;;5.23;;
56329;SDS011;42236;48.058;10.632;2023-02-10T03:48:55;7.50;;;4.60;;
56329;SDS011;42236;48.058;10.632;2023-02-10T03:51:40;14.07;;;5.07;;
56329;SDS011;42236;48.058;10.632;2023-02-10T03:54:26;8.40;;;5.20;;
56329;SDS011;42236;48.058;10.632;2023-02-10T03:57:13;9.97;;;5.53;;
56329;SDS011;42236;48.058;10.632;2023-02-10T03:59:58;9.97;;;5.57;;
56329;SDS011;42236;48.058;10.632;2023-02-10T04:02:44;11.57;;;5.37;;
56329;SDS011;42236;48.058;10.632;2023-02-10T04:05:30;12.43;;;5.00;;
56329;SDS011;42236;48.058;10.632;2023-02-10T04:08:15;10.63;;;4.23;;
56329;SDS011;42236;48.058;10.632;2023-02-10T04:11:02;7.90;;;4.97;;
56329;SDS011;42236;48.058;10.632;2023-02-10T04:13:48;8.80;;;5.37;;
56329;SDS011;42236;48.058;10.632;2023-02-10T04:16:34;6.60;;;4.87;;
56329;SDS011;42236;48.058;10.632;2023-02-10T04:19:20;10.27;;;5.13;;
56329;SDS011;42236;48.058;10.632;2023-02-10T04:22:06;10.60;;;4.83;;
56329;SDS011;42236;48.058;10.632;2023-02-10T04:24:51;11.80;;;6.57;;
56329;SDS011;42236;48.058;10.632;2023-02-10T04:27:37;11.90;;;4.97;;
56329;SDS011;42236;48.058;10.632;2023-02-10T04:30:22;7.13;;;4.53;;
56329;SDS011;42236;48.058;10.632;2023-02-10T04:33:08;6.77;;;4.57;;
56329;SDS011;42236;48.058;10.632;2023-02-10T04:35:54;11.87;;;6.17;;
56329;SDS011;42236;48.058;10.632;2023-02-10T04:38:40;10.17;;;5.10;;
56329;SDS011;42236;48.058;10.632;2023-02-10T04:41:26;8.03;;;5.17;;
56329;SDS011;42236;48.058;10.632;2023-02-10T04:44:12;10.17;;;4.47;;
56329;SDS011;42236;48.058;10.632;2023-02-10T04:46:57;9.37;;;4.87;;
56329;SDS011;42236;48.058;10.632;2023-02-10T04:49:46;9.43;;;4.60;;
56329;SDS011;42236;48.058;10.632;2023-02-10T04:52:32;8.63;;;4.30;;
56329;SDS011;42236;48.058;10.632;2023-02-10T04:55:18;9.73;;;4.50;;
56329;SDS011;42236;48.058;10.632;2023-02-10T04:58:04;9.23;;;4.10;;
56329;SDS011;42236;48.058;10.632;2023-02-10T05:00:49;11.70;;;4.47;;
56329;SDS011;42236;48.058;10.632;2023-02-10T05:03:35;8.13;;;3.87;;
56329;SDS011;42236;48.058;10.632;2023-02-10T05:06:21;6.43;;;3.83;;
56329;SDS011;42236;48.058;10.632;2023-02-10T05:09:06;6.33;;;4.37;;
56329;SDS011;42236;48.058;10.632;2023-02-10T05:11:52;9.60;;;4.73;;
56329;SDS011;42236;48.058;10.632;2023-02-10T05:14:38;7.73;;;3.97;;
56329;SDS011;42236;48.058;10.632;2023-02-10T05:17:23;13.70;;;6.07;;
56329;SDS011;42236;48.058;10.632;2023-02-10T05:20:09;11.50;;;4.40;;
56329;SDS011;42236;48.058;10.632;2023-02-10T05:22:55;7.37;;;3.67;;
56329;SDS011;42236;48.058;10.632;2023-02-10T05:25:40;5.10;;;3.40;;
56329;SDS011;42236;48.058;10.632;2023-02-10T05:28:26;8.73;;;4.50;;
56329;SDS011;42236;48.058;10.632;2023-02-10T05:31:12;8.50;;;4.30;;
56329;SDS011;42236;48.058;10.632;2023-02-10T05:33:58;4.40;;;3.27;;
56329;SDS011;42236;48.058;10.632;2023-02-10T05:36:44;7.17;;;3.70;;
56329;SDS011;42236;48.058;10.632;2023-02-10T05:39:29;7.10;;;3.60;;
56329;SDS011;42236;48.058;10.632;2023-02-10T05:42:15;6.00;;;3.63;;
56329;SDS011;42236;48.058;10.632;2023-02-10T05:45:01;5.83;;;3.50;;
56329;SDS011;42236;48.058;10.632;2023-02-10T05:47:46;8.03;;;4.13;;
56329;SDS011;42236;48.058;10.632;2023-02-10T05:50:32;6.47;;;3.93;;
56329;SDS011;42236;48.058;10.632;2023-02-10T05:53:18;7.30;;;3.30;;
56329;SDS011;42236;48.058;10.632;2023-02-10T05:56:04;6.97;;;3.50;;
56329;SDS011;42236;48.058;10.632;2023-02-10T05:58:50;12.07;;;4.37;;
56329;SDS011;42236;48.058;10.632;2023-02-10T06:01:35;8.03;;;4.40;;
56329;SDS011;42236;48.058;10.632;2023-02-10T06:04:21;10.07;;;4.07;;
56329;SDS011;42236;48.058;10.632;2023-02-10T06:07:07;8.43;;;4.47;;
56329;SDS011;42236;48.058;10.632;2023-02-10T06:09:52;6.27;;;3.83;;
56329;SDS011;42236;48.058;10.632;2023-02-10T06:12:38;9.87;;;4.33;;
56329;SDS011;42236;48.058;10.632;2023-02-10T06:15:23;7.37;;;4.27;;
56329;SDS011;42236;48.058;10.632;2023-02-10T06:18:09;6.80;;;4.60;;
56329;SDS011;42236;48.058;10.632;2023-02-10T06:20:55;8.50;;;4.20;;
56329;SDS011;42236;48.058;10.632;2023-02-10T06:23:41;10.77;;;5.33;;
56329;SDS011;42236;48.058;10.632;2023-02-10T06:26:27;9.83;;;5.67;;
56329;SDS011;42236;48.058;10.632;2023-02-10T06:29:13;13.10;;;5.27;;
56329;SDS011;42236;48.058;10.632;2023-02-10T06:31:58;9.07;;;4.57;;
56329;SDS011;42236;48.058;10.632;2023-02-10T06:34:44;7.57;;;3.73;;
56329;SDS011;42236;48.058;10.632;2023-02-10T06:37:30;6.13;;;3.80;;
56329;SDS011;42236;48.058;10.632;2023-02-10T06:40:16;7.40;;;3.67;;
56329;SDS011;42236;48.058;10.632;2023-02-10T06:43:02;6.13;;;3.50;;
56329;SDS011;42236;48.058;10.632;2023-02-10T06:45:48;6.20;;;4.20;;
56329;SDS011;42236;48.058;10.632;2023-02-10T06:48:33;7.07;;;4.70;;
56329;SDS011;42236;48.058;10.632;2023-02-10T06:51:19;9.00;;;4.60;;
56329;SDS011;42236;48.058;10.632;2023-02-10T06:54:05;8.37;;;4.10;;
56329;SDS011;42236;48.058;10.632;2023-02-10T06:56:50;8.30;;;3.87;;
56329;SDS011;42236;48.058;10.632;2023-02-10T06:59:36;9.00;;;5.00;;
56329;SDS011;42236;48.058;10.632;2023-02-10T07:02:22;11.60;;;4.63;;
56329;SDS011;42236;48.058;10.632;2023-02-10T07:05:07;8.73;;;4.93;;
56329;SDS011;42236;48.058;10.632;2023-02-10T07:07:55;8.67;;;4.57;;
56329;SDS011;42236;48.058;10.632;2023-02-10T07:10:44;8.93;;;5.17;;
56329;SDS011;42236;48.058;10.632;2023-02-10T07:13:29;8.93;;;4.57;;
56329;SDS011;42236;48.058;10.632;2023-02-10T07:16:15;9.77;;;4.93;;
56329;SDS011;42236;48.058;10.632;2023-02-10T07:19:02;10.53;;;4.47;;
56329;SDS011;42236;48.058;10.632;2023-02-10T07:21:48;9.40;;;4.87;;
56329;SDS011;42236;48.058;10.632;2023-02-10T07:24:35;7.60;;;4.73;;
56329;SDS011;42236;48.058;10.632;2023-02-10T07:27:21;6.77;;;3.77;;
56329;SDS011;42236;48.058;10.632;2023-02-10T07:30:07;7.93;;;3.80;;
56329;SDS011;42236;48.058;10.632;2023-02-10T07:32:53;7.97;;;4.67;;
56329;SDS011;42236;48.058;10.632;2023-02-10T07:35:39;11.10;;;5.27;;
56329;SDS011;42236;48.058;10.632;2023-02-10T07:38:25;10.83;;;4.50;;
56329;SDS011;42236;48.058;10.632;2023-02-10T07:41:10;12.50;;;4.70;;
56329;SDS011;42236;48.058;10.632;2023-02-10T07:43:56;12.70;;;4.83;;
56329;SDS011;42236;48.058;10.632;2023-02-10T07:46:43;12.53;;;5.93;;
56329;SDS011;42236;48.058;10.632;2023-02-10T07:49:28;12.57;;;5.33;;
56329;SDS011;42236;48.058;10.632;2023-02-10T07:52:14;10.03;;;5.00;;
56329;SDS011;42236;48.058;10.632;2023-02-10T07:55:00;9.47;;;4.90;;
56329;SDS011;42236;48.058;10.632;2023-02-10T07:57:48;12.20;;;5.30;;
56329;SDS011;42236;48.058;10.632;2023-02-10T08:00:33;9.20;;;5.53;;
56329;SDS011;42236;48.058;10.632;2023-02-10T08:03:19;10.00;;;5.83;;
56329;SDS011;42236;48.058;10.632;2023-02-10T08:06:05;12.13;;;5.60;;
56329;SDS011;42236;48.058;10.632;2023-02-10T08:08:51;11.47;;;5.13;;
56329;SDS011;42236;48.058;10.632;2023-02-10T08:11:37;10.30;;;5.63;;
56329;SDS011;42236;48.058;10.632;2023-02-10T08:14:23;10.33;;;6.07;;
56329;SDS011;42236;48.058;10.632;2023-02-10T08:17:09;10.90;;;6.03;;
56329;SDS011;42236;48.058;10.632;2023-02-10T08:19:55;15.13;;;5.43;;
56329;SDS011;42236;48.058;10.632;2023-02-10T08:22:40;14.27;;;7.20;;
56329;SDS011;42236;48.058;10.632;2023-02-10T08:25:26;11.47;;;4.93;;
56329;SDS011;42236;48.058;10.632;2023-02-10T08:28:12;7.83;;;4.53;;
56329;SDS011;42236;48.058;10.632;2023-02-10T08:31:01;10.10;;;4.90;;
56329;SDS011;42236;48.058;10.632;2023-02-10T08:33:48;14.10;;;5.50;;
56329;SDS011;42236;48.058;10.632;2023-02-10T08:36:33;7.27;;;4.43;;
56329;SDS011;42236;48.058;10.632;2023-02-10T08:39:19;14.53;;;6.27;;
56329;SDS011;42236;48.058;10.632;2023-02-10T08:42:05;14.17;;;6.80;;
56329;SDS011;42236;48.058;10.632;2023-02-10T08:44:51;8.50;;;5.17;;
56329;SDS011;42236;48.058;10.632;2023-02-10T08:47:36;13.80;;;6.30;;
56329;SDS011;42236;48.058;10.632;2023-02-10T08:50:23;7.43;;;4.53;;
56329;SDS011;42236;48.058;10.632;2023-02-10T08:53:08;12.43;;;5.80;;
56329;SDS011;42236;48.058;10.632;2023-02-10T08:56:28;9.03;;;5.27;;
56329;SDS011;42236;48.058;10.632;2023-02-10T08:59:07;9.10;;;5.10;;
56329;SDS011;42236;48.058;10.632;2023-02-10T09:01:53;11.77;;;5.70;;
56329;SDS011;42236;48.058;10.632;2023-02-10T09:04:39;8.63;;;4.90;;
56329;SDS011;42236;48.058;10.632;2023-02-10T09:07:26;8.37;;;5.33;;
56329;SDS011;42236;48.058;10.632;2023-02-10T09:10:12;13.03;;;4.63;;
56329;SDS011;42236;48.058;10.632;2023-02-10T09:12:58;9.43;;;5.43;;
56329;SDS011;42236;48.058;10.632;2023-02-10T09:15:44;13.67;;;6.00;;
56329;SDS011;42236;48.058;10.632;2023-02-10T09:18:29;10.47;;;5.47;;
56329;SDS011;42236;48.058;10.632;2023-02-10T09:21:15;7.97;;;4.83;;
56329;SDS011;42236;48.058;10.632;2023-02-10T09:24:02;9.53;;;5.10;;
56329;SDS011;42236;48.058;10.632;2023-02-10T09:26:47;15.17;;;5.27;;
56329;SDS011;42236;48.058;10.632;2023-02-10T09:29:33;9.20;;;5.33;;
56329;SDS011;42236;48.058;10.632;2023-02-10T09:32:19;8.07;;;4.70;;
56329;SDS011;42236;48.058;10.632;2023-02-10T09:35:04;12.67;;;6.27;;
56329;SDS011;42236;48.058;10.632;2023-02-10T09:37:50;14.63;;;6.60;;
56329;SDS011;42236;48.058;10.632;2023-02-10T09:40:46;13.20;;;6.00;;
56329;SDS011;42236;48.058;10.632;2023-02-10T09:47:08;9.00;;;5.80;;
56329;SDS011;42236;48.058;10.632;2023-02-10T09:53:13;12.87;;;7.67;;
56329;SDS011;42236;48.058;10.632;2023-02-10T09:56:07;14.77;;;7.57;;
56329;SDS011;42236;48.058;10.632;2023-02-10T09:58:59;19.20;;;8.07;;
56329;SDS011;42236;48.058;10.632;2023-02-10T10:01:47;16.00;;;9.07;;
56329;SDS011;42236;48.058;10.632;2023-02-10T10:04:36;18.67;;;8.87;;
56329;SDS011;42236;48.058;10.632;2023-02-10T10:07:25;16.80;;;9.40;;
56329;SDS011;42236;48.058;10.632;2023-02-10T10:10:27;18.03;;;9.37;;
56329;SDS011;42236;48.058;10.632;2023-02-10T10:13:25;16.00;;;9.10;;
56329;SDS011;42236;48.058;10.632;2023-02-10T10:16:20;21.43;;;9.50;;
56329;SDS011;42236;48.058;10.632;2023-02-10T10:31:18;16.30;;;9.67;;
56329;SDS011;42236;48.058;10.632;2023-02-10T10:34:39;18.33;;;9.43;;
56329;SDS011;42236;48.058;10.632;2023-02-10T10:37:22;14.93;;;9.23;;
56329;SDS011;42236;48.058;10.632;2023-02-10T10:40:20;16.77;;;8.27;;
56329;SDS011;42236;48.058;10.632;2023-02-10T10:43:23;15.03;;;8.37;;
56329;SDS011;42236;48.058;10.632;2023-02-10T10:46:15;17.80;;;9.80;;
56329;SDS011;42236;48.058;10.632;2023-02-10T10:49:06;18.23;;;9.93;;
56329;SDS011;42236;48.058;10.632;2023-02-10T10:51:52;17.73;;;10.13;;
56329;SDS011;42236;48.058;10.632;2023-02-10T10:54:37;22.00;;;11.57;;
56329;SDS011;42236;48.058;10.632;2023-02-10T10:57:26;18.40;;;8.93;;
56329;SDS011;42236;48.058;10.632;2023-02-10T11:03:03;20.67;;;11.33;;
56329;SDS011;42236;48.058;10.632;2023-02-10T11:05:57;23.37;;;12.33;;
56329;SDS011;42236;48.058;10.632;2023-02-10T11:08:52;20.27;;;10.40;;
56329;SDS011;42236;48.058;10.632;2023-02-10T11:11:40;20.37;;;11.17;;
56329;SDS011;42236;48.058;10.632;2023-02-10T11:14:27;22.63;;;12.70;;
56329;SDS011;42236;48.058;10.632;2023-02-10T11:23:12;19.63;;;11.83;;
56329;SDS011;42236;48.058;10.632;2023-02-10T11:26:02;18.47;;;11.30;;
56329;SDS011;42236;48.058;10.632;2023-02-10T11:28:52;23.97;;;11.47;;
56329;SDS011;42236;48.058;10.632;2023-02-10T11:31:38;23.20;;;11.40;;
56329;SDS011;42236;48.058;10.632;2023-02-10T11:34:28;18.90;;;11.33;;
56329;SDS011;42236;48.058;10.632;2023-02-10T11:37:21;22.50;;;10.83;;
56329;SDS011;42236;48.058;10.632;2023-02-10T11:40:21;15.13;;;8.77;;
56329;SDS011;42236;48.058;10.632;2023-02-10T11:43:10;19.57;;;11.73;;
56329;SDS011;42236;48.058;10.632;2023-02-10T11:46:00;16.53;;;9.30;;
56329;SDS011;42236;48.058;10.632;2023-02-10T11:48:55;20.97;;;9.37;;
56329;SDS011;42236;48.058;10.632;2023-02-10T11:51:53;18.90;;;9.60;;
56329;SDS011;42236;48.058;10.632;2023-02-10T11:54:40;19.50;;;9.33;;
56329;SDS011;42236;48.058;10.632;2023-02-10T11:57:33;20.73;;;10.77;;
56329;SDS011;42236;48.058;10.632;2023-02-10T12:07:01;14.10;;;8.60;;
56329;SDS011;42236;48.058;10.632;2023-02-10T12:10:08;16.13;;;8.93;;
56329;SDS011;42236;48.058;10.632;2023-02-10T12:19:01;18.83;;;10.37;;
56329;SDS011;42236;48.058;10.632;2023-02-10T12:30:46;13.43;;;6.40;;
56329;SDS011;42236;48.058;10.632;2023-02-10T12:33:45;14.73;;;8.93;;
56329;SDS011;42236;48.058;10.632;2023-02-10T12:36:48;20.97;;;9.43;;
56329;SDS011;42236;48.058;10.632;2023-02-10T12:45:51;18.47;;;10.07;;
56329;SDS011;42236;48.058;10.632;2023-02-10T12:48:56;14.50;;;8.90;;
56329;SDS011;42236;48.058;10.632;2023-02-10T12:51:50;20.50;;;8.07;;
56329;SDS011;42236;48.058;10.632;2023-02-10T12:55:00;16.20;;;10.40;;
56329;SDS011;42236;48.058;10.632;2023-02-10T12:57:58;18.63;;;9.70;;
56329;SDS011;42236;48.058;10.632;2023-02-10T13:01:04;19.07;;;9.63;;
56329;SDS011;42236;48.058;10.632;2023-02-10T13:04:02;16.90;;;9.73;;
56329;SDS011;42236;48.058;10.632;2023-02-10T13:10:49;14.30;;;8.33;;
56329;SDS011;42236;48.058;10.632;2023-02-10T13:13:13;16.80;;;9.33;;
56329;SDS011;42236;48.058;10.632;2023-02-10T13:16:06;15.57;;;8.37;;
56329;SDS011;42236;48.058;10.632;2023-02-10T13:18:57;19.53;;;8.60;;
56329;SDS011;42236;48.058;10.632;2023-02-10T13:25:08;16.33;;;9.23;;
56329;SDS011;42236;48.058;10.632;2023-02-10T13:34:03;17.37;;;9.00;;
56329;SDS011;42236;48.058;10.632;2023-02-10T13:37:05;16.27;;;8.53;;
56329;SDS011;42236;48.058;10.632;2023-02-10T13:39:54;15.40;;;8.73;;
56329;SDS011;42236;48.058;10.632;2023-02-10T13:43:02;20.17;;;10.00;;
56329;SDS011;42236;48.058;10.632;2023-02-10T13:45:50;14.20;;;8.70;;
56329;SDS011;42236;48.058;10.632;2023-02-10T13:48:38;13.93;;;8.63;;
56329;SDS011;42236;48.058;10.632;2023-02-10T13:51:29;17.80;;;8.77;;
56329;SDS011;42236;48.058;10.632;2023-02-10T13:54:27;16.13;;;10.13;;
56329;SDS011;42236;48.058;10.632;2023-02-10T13:57:27;17.20;;;8.90;;
56329;SDS011;42236;48.058;10.632;2023-02-10T14:00:17;22.03;;;9.43;;
56329;SDS011;42236;48.058;10.632;2023-02-10T14:06:01;16.00;;;9.10;;
56329;SDS011;42236;48.058;10.632;2023-02-10T14:08:47;18.07;;;10.00;;
56329;SDS011;42236;48.058;10.632;2023-02-10T14:11:40;16.33;;;8.30;;
56329;SDS011;42236;48.058;10.632;2023-02-10T14:20:13;17.40;;;10.07;;
56329;SDS011;42236;48.058;10.632;2023-02-10T14:23:03;16.77;;;9.40;;
56329;SDS011;42236;48.058;10.632;2023-02-10T14:26:02;15.80;;;9.13;;
56329;SDS011;42236;48.058;10.632;2023-02-10T14:28:50;15.37;;;9.57;;
56329;SDS011;42236;48.058;10.632;2023-02-10T14:31:42;15.77;;;9.43;;
56329;SDS011;42236;48.058;10.632;2023-02-10T14:34:32;15.00;;;9.40;;
56329;SDS011;42236;48.058;10.632;2023-02-10T14:37:20;13.00;;;8.87;;
56329;SDS011;42236;48.058;10.632;2023-02-10T14:40:17;17.43;;;8.77;;
56329;SDS011;42236;48.058;10.632;2023-02-10T14:43:04;17.63;;;8.77;;
56329;SDS011;42236;48.058;10.632;2023-02-10T14:45:50;13.70;;;8.60;;
56329;SDS011;42236;48.058;10.632;2023-02-10T14:48:36;18.50;;;8.43;;
56329;SDS011;42236;48.058;10.632;2023-02-10T14:51:23;15.40;;;9.03;;
56329;SDS011;42236;48.058;10.632;2023-02-10T14:54:15;21.97;;;9.07;;
56329;SDS011;42236;48.058;10.632;2023-02-10T14:57:10;12.33;;;8.60;;
56329;SDS011;42236;48.058;10.632;2023-02-10T14:59:58;17.13;;;9.17;;
56329;SDS011;42236;48.058;10.632;2023-02-10T15:02:46;13.53;;;8.93;;
56329;SDS011;42236;48.058;10.632;2023-02-10T15:05:44;14.20;;;9.37;;
56329;SDS011;42236;48.058;10.632;2023-02-10T15:08:42;16.13;;;9.30;;
56329;SDS011;42236;48.058;10.632;2023-02-10T15:11:37;14.47;;;8.57;;
56329;SDS011;42236;48.058;10.632;2023-02-10T15:17:38;15.97;;;8.47;;
56329;SDS011;42236;48.058;10.632;2023-02-10T15:20:27;17.73;;;9.37;;
56329;SDS011;42236;48.058;10.632;2023-02-10T15:23:16;18.47;;;9.43;;
56329;SDS011;42236;48.058;10.632;2023-02-10T15:29:03;17.27;;;8.90;;
56329;SDS011;42236;48.058;10.632;2023-02-10T15:31:57;17.30;;;9.40;;
56329;SDS011;42236;48.058;10.632;2023-02-10T15:34:43;14.50;;;10.03;;
56329;SDS011;42236;48.058;10.632;2023-02-10T15:37:29;18.57;;;9.63;;
56329;SDS011;42236;48.058;10.632;2023-02-10T15:40:21;20.73;;;8.90;;
56329;SDS011;42236;48.058;10.632;2023-02-10T15:43:22;16.53;;;9.63;;
56329;SDS011;42236;48.058;10.632;2023-02-10T15:46:16;17.00;;;9.97;;
56329;SDS011;42236;48.058;10.632;2023-02-10T15:49:16;15.87;;;8.87;;
56329;SDS011;42236;48.058;10.632;2023-02-10T15:52:03;15.03;;;9.10;;
56329;SDS011;42236;48.058;10.632;2023-02-10T15:54:49;16.30;;;9.13;;
56329;SDS011;42236;48.058;10.632;2023-02-10T15:57:36;16.27;;;9.77;;
56329;SDS011;42236;48.058;10.632;2023-02-10T16:00:24;17.70;;;9.53;;
56329;SDS011;42236;48.058;10.632;2023-02-10T16:03:14;22.77;;;9.17;;
56329;SDS011;42236;48.058;10.632;2023-02-10T16:06:00;21.90;;;10.47;;
56329;SDS011;42236;48.058;10.632;2023-02-10T16:08:47;18.67;;;11.90;;
56329;SDS011;42236;48.058;10.632;2023-02-10T16:11:32;19.60;;;9.93;;
56329;SDS011;42236;48.058;10.632;2023-02-10T16:14:18;16.40;;;9.83;;
56329;SDS011;42236;48.058;10.632;2023-02-10T16:17:04;24.20;;;12.23;;
56329;SDS011;42236;48.058;10.632;2023-02-10T16:19:51;23.00;;;11.90;;
56329;SDS011;42236;48.058;10.632;2023-02-10T16:22:36;20.37;;;11.47;;
56329;SDS011;42236;48.058;10.632;2023-02-10T16:25:23;17.63;;;10.97;;
56329;SDS011;42236;48.058;10.632;2023-02-10T16:28:12;42.07;;;22.93;;
56329;SDS011;42236;48.058;10.632;2023-02-10T16:31:00;30.23;;;16.30;;
56329;SDS011;42236;48.058;10.632;2023-02-10T16:33:45;16.13;;;10.47;;
56329;SDS011;42236;48.058;10.632;2023-02-10T16:36:31;16.43;;;9.30;;
56329;SDS011;42236;48.058;10.632;2023-02-10T16:39:18;17.53;;;10.47;;
56329;SDS011;42236;48.058;10.632;2023-02-10T16:42:06;18.10;;;9.77;;
56329;SDS011;42236;48.058;10.632;2023-02-10T16:44:52;18.50;;;10.87;;
56329;SDS011;42236;48.058;10.632;2023-02-10T16:47:37;20.90;;;10.93;;
56329;SDS011;42236;48.058;10.632;2023-02-10T16:50:25;16.07;;;9.40;;
56329;SDS011;42236;48.058;10.632;2023-02-10T16:53:12;17.73;;;10.00;;
56329;SDS011;42236;48.058;10.632;2023-02-10T16:55:57;18.20;;;9.97;;
56329;SDS011;42236;48.058;10.632;2023-02-10T16:58:43;16.33;;;9.20;;
56329;SDS011;42236;48.058;10.632;2023-02-10T17:01:29;16.80;;;10.30;;
56329;SDS011;42236;48.058;10.632;2023-02-10T17:04:16;24.27;;;11.00;;
56329;SDS011;42236;48.058;10.632;2023-02-10T17:07:02;17.70;;;10.17;;
56329;SDS011;42236;48.058;10.632;2023-02-10T17:09:47;20.40;;;10.77;;
56329;SDS011;42236;48.058;10.632;2023-02-10T17:12:33;20.03;;;10.73;;
56329;SDS011;42236;48.058;10.632;2023-02-10T17:15:19;19.33;;;10.60;;
56329;SDS011;42236;48.058;10.632;2023-02-10T17:18:05;23.47;;;11.37;;
56329;SDS011;42236;48.058;10.632;2023-02-10T17:20:51;19.10;;;10.73;;
56329;SDS011;42236;48.058;10.632;2023-02-10T17:23:37;18.00;;;9.87;;
56329;SDS011;42236;48.058;10.632;2023-02-10T17:26:22;17.80;;;10.67;;
56329;SDS011;42236;48.058;10.632;2023-02-10T17:29:08;22.57;;;12.57;;
56329;SDS011;42236;48.058;10.632;2023-02-10T17:31:54;21.50;;;11.37;;
56329;SDS011;42236;48.058;10.632;2023-02-10T17:34:40;19.70;;;10.33;;
56329;SDS011;42236;48.058;10.632;2023-02-10T17:37:25;17.50;;;9.90;;
56329;SDS011;42236;48.058;10.632;2023-02-10T17:40:11;16.90;;;10.03;;
56329;SDS011;42236;48.058;10.632;2023-02-10T17:43:12;19.53;;;10.67;;
56329;SDS011;42236;48.058;10.632;2023-02-10T17:45:58;19.57;;;10.93;;
56329;SDS011;42236;48.058;10.632;2023-02-10T17:48:44;19.17;;;10.50;;
56329;SDS011;42236;48.058;10.632;2023-02-10T17:51:30;20.50;;;11.33;;
56329;SDS011;42236;48.058;10.632;2023-02-10T17:54:16;16.60;;;9.43;;
56329;SDS011;42236;48.058;10.632;2023-02-10T17:57:02;25.57;;;12.10;;
56329;SDS011;42236;48.058;10.632;2023-02-10T17:59:47;20.97;;;11.27;;
56329;SDS011;42236;48.058;10.632;2023-02-10T18:02:33;18.27;;;10.87;;
56329;SDS011;42236;48.058;10.632;2023-02-10T18:05:19;20.97;;;11.30;;